Time;durP1;ratioP1;P1;durP2;ratioP2;P2;SDS_P1;SDS_P2;PMS_P1;PMS_P2;Temp;Humidity;BMP_temperature;BMP_pressure;BME280_temperature;BME280_humidity;BME280_pressure;Samples;Min_cycle;Max_cycle;Signal;HPM_P1;HPM_P2
2024/03/29 01:47:43;;;;;;;25.65;18.60;;;;;;;;;;10444905;28;20501;-77
2024/03/29 01:52:46;;;;;;;30.00;20.13;;;;;;;;;;10444095;28;20525;-78
2024/03/29 01:57:49;;;;;;;27.20;18.70;;;;;;;;;;10443334;28;20458;-78
2024/03/29 02:02:53;;;;;;;30.05;20.05;;;;;;;;;;10441020;28;20407;-77
2024/03/29 02:07:56;;;;;;;27.98;19.08;;;;;;;;;;10445235;28;20423;-77
2024/03/29 02:12:58;;;;;;;30.53;18.43;;;;;;;;;;10448179;28;20946;-78
2024/03/29 02:18:02;;;;;;;28.37;19.27;;;;;;;;;;10440961;28;20471;-77
2024/03/29 02:23:08;;;;;;;30.38;19.27;;;;;;;;;;10444862;28;20409;-77
2024/03/29 02:28:13;;;;;;;27.13;18.60;;;;;;;;;;10444014;28;20933;-77
2024/03/29 02:33:16;;;;;;;30.07;19.47;;;;;;;;;;10442387;28;20446;-77
2024/03/29 02:38:18;;;;;;;30.00;19.63;;;;;;;;;;10447511;28;20417;-77
2024/03/29 02:43:22;;;;;;;29.38;19.20;;;;;;;;;;10453998;28;20412;-77
2024/03/29 02:48:24;;;;;;;30.38;20.13;;;;;;;;;;10444757;28;20976;-78
2024/03/29 02:53:27;;;;;;;32.42;18.73;;;;;;;;;;10439853;28;20435;-78
2024/03/29 02:58:31;;;;;;;28.60;18.55;;;;;;;;;;10440559;28;20447;-78
2024/03/29 03:03:33;;;;;;;29.15;19.27;;;;;;;;;;10438408;28;20760;-78
2024/03/29 03:13:56;;;;;;;29.17;18.17;;;;;;;;;;10438764;28;20436;-77
2024/03/29 03:18:59;;;;;;;29.30;18.90;;;;;;;;;;10438531;28;20457;-77
2024/03/29 03:24:04;;;;;;;31.13;18.85;;;;;;;;;;10438647;28;20953;-77
2024/03/29 03:29:10;;;;;;;32.70;19.17;;;;;;;;;;10432853;28;20461;-77
2024/03/29 03:34:12;;;;;;;32.70;18.98;;;;;;;;;;10424715;28;20421;-77
2024/03/29 03:39:14;;;;;;;31.25;19.50;;;;;;;;;;10433340;28;20419;-77
2024/03/29 03:44:19;;;;;;;30.85;17.67;;;;;;;;;;10439026;28;20439;-77
2024/03/29 03:49:21;;;;;;;29.83;17.83;;;;;;;;;;10436777;28;20459;-77
2024/03/29 03:54:23;;;;;;;29.50;17.58;;;;;;;;;;10435747;28;20467;-77
2024/03/29 03:59:27;;;;;;;33.72;19.10;;;;;;;;;;10441411;28;21030;-77
2024/03/29 04:04:30;;;;;;;31.85;17.77;;;;;;;;;;10435736;28;20411;-78
2024/03/29 04:09:32;;;;;;;29.60;17.95;;;;;;;;;;10436108;28;20455;-77
2024/03/29 04:14:36;;;;;;;29.77;17.45;;;;;;;;;;10434825;28;21035;-78
2024/03/29 04:19:38;;;;;;;31.57;17.87;;;;;;;;;;10434966;28;20507;-77
2024/03/29 04:24:41;;;;;;;30.43;16.07;;;;;;;;;;10435712;28;20465;-77
2024/03/29 04:29:44;;;;;;;24.80;14.50;;;;;;;;;;10435819;28;20512;-77
2024/03/29 04:34:50;;;;;;;28.08;15.07;;;;;;;;;;10433910;28;20426;-77
2024/03/29 04:39:52;;;;;;;27.13;15.73;;;;;;;;;;10433570;28;20414;-78
2024/03/29 04:44:56;;;;;;;27.70;15.17;;;;;;;;;;10439023;28;20518;-77
2024/03/29 04:49:59;;;;;;;25.70;14.93;;;;;;;;;;10434344;28;20521;-77
2024/03/29 04:55:01;;;;;;;28.35;15.23;;;;;;;;;;10434911;28;20485;-78
2024/03/29 05:00:06;;;;;;;26.60;15.10;;;;;;;;;;10434766;28;20421;-77
2024/03/29 05:05:09;;;;;;;26.00;15.30;;;;;;;;;;10433236;28;20417;-77
2024/03/29 05:10:12;;;;;;;27.67;15.43;;;;;;;;;;10435513;28;20514;-76
2024/03/29 05:15:16;;;;;;;26.13;14.83;;;;;;;;;;10431272;28;20407;-77
2024/03/29 05:20:18;;;;;;;25.70;15.70;;;;;;;;;;10428332;28;20468;-77
2024/03/29 05:25:21;;;;;;;28.47;16.20;;;;;;;;;;10431338;28;20414;-77
2024/03/29 05:30:24;;;;;;;27.53;16.07;;;;;;;;;;10428201;28;20532;-77
2024/03/29 05:35:27;;;;;;;27.23;15.55;;;;;;;;;;10431923;28;20403;-77
2024/03/29 05:40:29;;;;;;;29.00;16.58;;;;;;;;;;10434430;28;20473;-78
2024/03/29 05:45:33;;;;;;;30.88;16.77;;;;;;;;;;10429149;28;20441;-78
2024/03/29 05:50:35;;;;;;;28.58;16.25;;;;;;;;;;10429251;28;20531;-77
2024/03/29 05:55:38;;;;;;;29.38;16.42;;;;;;;;;;10434988;28;20469;-77
2024/03/29 06:00:42;;;;;;;30.65;16.67;;;;;;;;;;10430380;28;20431;-77
2024/03/29 06:05:44;;;;;;;31.00;17.02;;;;;;;;;;10430761;28;20441;-78
2024/03/29 06:10:46;;;;;;;32.90;18.20;;;;;;;;;;10433737;28;20489;-77
2024/03/29 06:21:10;;;;;;;32.22;17.88;;;;;;;;;;10432873;28;20460;-77
2024/03/29 06:26:13;;;;;;;30.90;16.33;;;;;;;;;;10430517;28;20913;-77
2024/03/29 06:31:16;;;;;;;26.90;15.48;;;;;;;;;;10440191;28;20503;-77
2024/03/29 06:36:19;;;;;;;27.07;15.27;;;;;;;;;;10426248;28;20399;-78
2024/03/29 06:41:21;;;;;;;25.42;14.70;;;;;;;;;;10434255;28;20463;-77
2024/03/29 06:46:25;;;;;;;29.83;15.77;;;;;;;;;;10426951;28;20450;-78
2024/03/29 06:51:28;;;;;;;28.73;15.57;;;;;;;;;;10433382;28;20463;-77
2024/03/29 06:56:30;;;;;;;27.27;14.83;;;;;;;;;;10432072;28;20477;-79
2024/03/29 07:01:36;;;;;;;25.27;14.30;;;;;;;;;;10431392;28;20443;-78
2024/03/29 07:06:39;;;;;;;23.95;12.70;;;;;;;;;;10428702;28;20405;-77
2024/03/29 07:11:41;;;;;;;22.75;12.70;;;;;;;;;;10438266;28;20510;-78
2024/03/29 07:16:46;;;;;;;18.80;11.20;;;;;;;;;;10437914;28;20441;-78
2024/03/29 07:21:50;;;;;;;18.45;10.10;;;;;;;;;;10435690;28;20404;-77
2024/03/29 07:26:53;;;;;;;17.23;9.73;;;;;;;;;;10436922;28;20826;-77
2024/03/29 07:31:56;;;;;;;15.85;8.48;;;;;;;;;;10439882;28;20485;-77
2024/03/29 07:36:59;;;;;;;12.77;7.72;;;;;;;;;;10437255;28;20408;-77
2024/03/29 07:42:01;;;;;;;14.60;8.75;;;;;;;;;;10438341;28;20817;-78
2024/03/29 07:47:05;;;;;;;13.45;7.13;;;;;;;;;;10434737;28;20413;-77
2024/03/29 07:52:09;;;;;;;11.63;6.90;;;;;;;;;;10437740;28;21110;-78
2024/03/29 07:57:14;;;;;;;13.53;7.87;;;;;;;;;;10436996;28;20477;-77
2024/03/29 08:02:18;;;;;;;10.52;6.20;;;;;;;;;;10419762;28;20499;-77
2024/03/29 08:07:20;;;;;;;10.70;6.10;;;;;;;;;;10430170;28;20911;-77
2024/03/29 08:12:22;;;;;;;10.57;6.60;;;;;;;;;;10425874;28;20459;-78
2024/03/29 08:17:26;;;;;;;11.77;5.97;;;;;;;;;;10422708;28;20437;-77
2024/03/29 08:22:29;;;;;;;9.07;5.50;;;;;;;;;;10429933;28;20490;-77
2024/03/29 08:27:31;;;;;;;9.60;5.03;;;;;;;;;;10424309;28;20499;-78
2024/03/29 08:32:35;;;;;;;7.03;4.32;;;;;;;;;;10426080;28;20515;-77
2024/03/29 08:37:38;;;;;;;5.90;3.47;;;;;;;;;;10421210;28;20443;-77
2024/03/29 08:42:40;;;;;;;6.50;3.27;;;;;;;;;;10426814;28;20759;-77
2024/03/29 08:47:44;;;;;;;6.73;3.27;;;;;;;;;;10429312;28;21036;-77
2024/03/29 08:52:46;;;;;;;5.65;2.80;;;;;;;;;;10429122;28;20847;-78
2024/03/29 08:57:48;;;;;;;4.90;3.28;;;;;;;;;;10431830;28;20407;-77
2024/03/29 09:02:52;;;;;;;5.97;2.90;;;;;;;;;;10429771;28;20901;-77
2024/03/29 09:07:55;;;;;;;5.43;3.00;;;;;;;;;;10430632;28;22322;-78
2024/03/29 09:12:57;;;;;;;6.27;2.83;;;;;;;;;;10432976;28;20447;-78
2024/03/29 09:18:10;;;;;;;7.15;2.80;;;;;;;;;;10430709;28;20892;-78
2024/03/29 09:23:16;;;;;;;6.13;2.73;;;;;;;;;;10433490;28;20825;-77
2024/03/29 09:28:20;;;;;;;4.68;2.63;;;;;;;;;;10432801;28;20498;-79
2024/03/29 09:33:24;;;;;;;4.60;2.70;;;;;;;;;;10427742;28;20463;-78
2024/03/29 09:38:27;;;;;;;6.40;2.45;;;;;;;;;;10426375;28;20432;-78
2024/03/29 09:43:30;;;;;;;3.80;2.50;;;;;;;;;;10427595;28;20498;-78
2024/03/29 09:48:37;;;;;;;4.70;2.63;;;;;;;;;;10432888;28;20843;-78
2024/03/29 09:53:39;;;;;;;4.72;2.47;;;;;;;;;;10424711;28;20479;-78
2024/03/29 09:58:41;;;;;;;7.28;3.20;;;;;;;;;;10418433;28;20990;-78
2024/03/29 10:03:49;;;;;;;6.90;3.05;;;;;;;;;;10439332;28;20506;-76
2024/03/29 10:08:54;;;;;;;4.97;3.33;;;;;;;;;;10437802;28;20455;-77
2024/03/29 10:13:57;;;;;;;4.10;2.60;;;;;;;;;;10441276;28;20415;-76
2024/03/29 10:19:01;;;;;;;4.95;2.97;;;;;;;;;;10430515;28;20473;-76
2024/03/29 10:24:13;;;;;;;4.87;2.60;;;;;;;;;;10441761;28;20506;-76
2024/03/29 10:29:16;;;;;;;4.50;2.40;;;;;;;;;;10438795;28;20869;-77
2024/03/29 10:34:20;;;;;;;5.35;2.50;;;;;;;;;;10433374;28;20837;-76
2024/03/29 10:39:23;;;;;;;4.65;2.05;;;;;;;;;;10438826;28;20441;-77
2024/03/29 10:44:27;;;;;;;5.43;2.38;;;;;;;;;;10435437;28;20412;-79
2024/03/29 10:49:34;;;;;;;5.15;2.60;;;;;;;;;;10432922;28;20451;-76
2024/03/29 10:54:38;;;;;;;6.75;3.55;;;;;;;;;;10432899;28;20465;-77
2024/03/29 10:59:48;;;;;;;4.55;2.70;;;;;;;;;;10434213;28;20417;-77
2024/03/29 11:04:53;;;;;;;6.50;3.50;;;;;;;;;;10436798;28;20605;-77
2024/03/29 11:09:59;;;;;;;6.10;3.40;;;;;;;;;;10439607;28;20485;-77
2024/03/29 11:15:05;;;;;;;7.25;4.15;;;;;;;;;;10441144;28;20400;-77
2024/03/29 11:20:11;;;;;;;7.88;3.80;;;;;;;;;;10429228;28;21232;-77
2024/03/29 11:25:14;;;;;;;9.80;3.70;;;;;;;;;;10428607;28;20443;-77
2024/03/29 11:30:19;;;;;;;7.25;3.67;;;;;;;;;;10432933;28;20463;-76
2024/03/29 11:35:24;;;;;;;10.90;4.50;;;;;;;;;;10424107;28;20493;-77
2024/03/29 11:40:31;;;;;;;8.32;4.05;;;;;;;;;;10428259;28;20504;-77
2024/03/29 11:45:34;;;;;;;8.40;4.55;;;;;;;;;;10426464;28;20499;-78
2024/03/29 11:50:38;;;;;;;8.98;4.15;;;;;;;;;;10426330;28;20519;-77
2024/03/29 11:55:40;;;;;;;6.05;2.60;;;;;;;;;;10427540;28;20494;-78
2024/03/29 12:00:45;;;;;;;5.88;2.20;;;;;;;;;;10425545;28;20694;-77
2024/03/29 12:05:51;;;;;;;3.60;2.27;;;;;;;;;;10429437;28;20421;-78
2024/03/29 12:10:54;;;;;;;4.28;1.77;;;;;;;;;;10425520;28;20519;-78
2024/03/29 12:15:56;;;;;;;2.25;1.40;;;;;;;;;;10425064;28;20834;-76
2024/03/29 12:21:00;;;;;;;3.28;1.90;;;;;;;;;;10425365;28;20437;-77
2024/03/29 12:26:03;;;;;;;4.53;1.70;;;;;;;;;;10425884;28;20424;-77
2024/03/29 12:31:10;;;;;;;4.13;1.83;;;;;;;;;;10428933;28;20497;-77
2024/03/29 12:36:15;;;;;;;4.13;1.30;;;;;;;;;;10416963;28;20433;-76
2024/03/29 12:41:18;;;;;;;3.67;1.30;;;;;;;;;;10415420;28;20417;-77
2024/03/29 12:46:20;;;;;;;4.90;1.33;;;;;;;;;;10425237;28;20440;-77
2024/03/29 12:51:25;;;;;;;2.67;1.05;;;;;;;;;;10425044;28;20589;-77
2024/03/29 12:56:27;;;;;;;4.45;1.35;;;;;;;;;;10422905;28;20552;-76
2024/03/29 13:01:29;;;;;;;6.00;1.70;;;;;;;;;;10414736;28;20511;-76
2024/03/29 13:06:34;;;;;;;5.43;2.07;;;;;;;;;;10422739;28;20506;-77
2024/03/29 13:11:36;;;;;;;6.22;1.80;;;;;;;;;;10419392;28;21016;-78
2024/03/29 13:16:39;;;;;;;8.50;2.30;;;;;;;;;;10422730;28;20437;-76
2024/03/29 13:21:43;;;;;;;6.35;1.95;;;;;;;;;;10419758;28;20449;-76
2024/03/29 13:26:45;;;;;;;6.97;2.90;;;;;;;;;;10425443;28;20499;-76
2024/03/29 13:31:48;;;;;;;6.93;2.40;;;;;;;;;;10417398;28;20526;-76
2024/03/29 13:36:52;;;;;;;8.50;2.85;;;;;;;;;;10423543;28;20492;-85
2024/03/29 13:41:54;;;;;;;6.00;2.08;;;;;;;;;;10418200;28;21002;-75
2024/03/29 13:46:57;;;;;;;8.13;2.95;;;;;;;;;;10419453;28;20509;-76
2024/03/29 13:52:01;;;;;;;5.22;2.10;;;;;;;;;;10416667;28;20456;-76
2024/03/29 13:57:04;;;;;;;5.20;2.37;;;;;;;;;;10428145;28;20456;-76
2024/03/29 14:02:07;;;;;;;5.47;2.87;;;;;;;;;;10418302;28;20572;-76
2024/03/29 14:07:12;;;;;;;5.10;2.65;;;;;;;;;;10416698;28;20453;-76
2024/03/29 14:12:15;;;;;;;6.43;2.40;;;;;;;;;;10423919;28;20481;-77
2024/03/29 14:17:17;;;;;;;6.37;2.60;;;;;;;;;;10425636;28;20545;-77
2024/03/29 14:22:23;;;;;;;7.88;2.28;;;;;;;;;;10428524;28;20451;-77
2024/03/29 14:27:26;;;;;;;5.43;1.95;;;;;;;;;;10427597;28;20992;-77
2024/03/29 14:32:29;;;;;;;7.85;2.60;;;;;;;;;;10424912;28;20541;-77
2024/03/29 14:37:32;;;;;;;8.47;2.30;;;;;;;;;;10430125;28;20439;-77
2024/03/29 14:42:35;;;;;;;5.90;2.13;;;;;;;;;;10428617;28;20501;-77
2024/03/29 14:47:38;;;;;;;7.00;2.60;;;;;;;;;;10419862;28;20455;-77
2024/03/29 14:52:42;;;;;;;8.50;2.20;;;;;;;;;;10424410;28;20456;-76
2024/03/29 14:57:44;;;;;;;6.50;2.20;;;;;;;;;;10426356;28;20451;-76
2024/03/29 15:02:46;;;;;;;8.50;2.55;;;;;;;;;;10431956;28;20467;-76
2024/03/29 15:07:51;;;;;;;8.43;2.50;;;;;;;;;;10423098;28;20452;-76
2024/03/29 15:12:53;;;;;;;8.60;2.70;;;;;;;;;;10428646;28;20448;-76
2024/03/29 15:17:58;;;;;;;7.75;2.60;;;;;;;;;;10432787;28;20510;-76
2024/03/29 15:23:02;;;;;;;9.43;2.63;;;;;;;;;;10423004;28;20505;-76
2024/03/29 15:33:24;;;;;;;7.23;2.40;;;;;;;;;;10423999;28;20483;-76
2024/03/29 15:38:30;;;;;;;9.45;2.58;;;;;;;;;;10419219;28;20465;-77
2024/03/29 15:43:32;;;;;;;8.38;2.78;;;;;;;;;;10425433;28;20466;-77
2024/03/29 15:48:35;;;;;;;8.67;2.63;;;;;;;;;;10420310;28;20443;-77
2024/03/29 15:53:39;;;;;;;10.65;2.67;;;;;;;;;;10422277;28;20516;-77
2024/03/29 15:58:42;;;;;;;5.93;2.30;;;;;;;;;;10422990;28;20501;-77
2024/03/29 16:03:44;;;;;;;7.80;2.38;;;;;;;;;;10420946;28;20870;-77
2024/03/29 16:08:48;;;;;;;6.70;2.53;;;;;;;;;;10407786;28;20901;-79
2024/03/29 16:13:51;;;;;;;6.38;2.50;;;;;;;;;;10409422;28;20523;-79
2024/03/29 16:18:53;;;;;;;8.40;2.50;;;;;;;;;;10406098;28;20497;-78
2024/03/29 16:23:57;;;;;;;6.03;2.50;;;;;;;;;;10413438;28;20459;-79
2024/03/29 16:29:06;;;;;;;6.40;3.13;;;;;;;;;;10415172;28;20440;-78
2024/03/29 16:34:08;;;;;;;10.63;4.97;;;;;;;;;;10421118;28;20461;-79
2024/03/29 16:39:12;;;;;;;9.70;2.45;;;;;;;;;;10420556;28;20972;-79
2024/03/29 16:44:14;;;;;;;6.85;2.78;;;;;;;;;;10424981;28;20492;-79
2024/03/29 16:49:17;;;;;;;7.63;3.10;;;;;;;;;;10421856;28;21105;-79
2024/03/29 16:54:20;;;;;;;9.02;3.13;;;;;;;;;;10427445;28;20568;-78
2024/03/29 16:59:23;;;;;;;9.47;3.13;;;;;;;;;;10433074;28;21119;-78
2024/03/29 17:04:25;;;;;;;8.83;3.27;;;;;;;;;;10427263;28;20541;-77
2024/03/29 17:09:39;;;;;;;8.63;3.20;;;;;;;;;;10425868;28;20431;-78
2024/03/29 17:14:42;;;;;;;6.45;2.88;;;;;;;;;;10426968;28;20463;-77
2024/03/29 17:19:44;;;;;;;8.70;3.00;;;;;;;;;;10418458;28;20481;-78
2024/03/29 17:24:49;;;;;;;8.63;2.97;;;;;;;;;;10423642;28;20459;-77
2024/03/29 17:29:51;;;;;;;8.98;3.55;;;;;;;;;;10423638;28;20451;-76
2024/03/29 17:34:54;;;;;;;8.43;4.07;;;;;;;;;;10424850;28;20488;-78
2024/03/29 17:39:57;;;;;;;10.30;3.47;;;;;;;;;;10425788;28;20998;-79
2024/03/29 17:45:00;;;;;;;11.23;3.97;;;;;;;;;;10430205;28;20945;-76
2024/03/29 17:50:03;;;;;;;6.60;3.40;;;;;;;;;;10422926;28;20405;-76
2024/03/29 17:55:07;;;;;;;7.43;3.20;;;;;;;;;;10420549;28;20486;-79
2024/03/29 18:00:14;;;;;;;9.13;3.40;;;;;;;;;;10428666;28;20928;-78
2024/03/29 18:05:17;;;;;;;7.87;3.53;;;;;;;;;;10428277;28;20620;-77
2024/03/29 18:10:21;;;;;;;7.00;3.60;;;;;;;;;;10430329;28;20439;-78
2024/03/29 18:15:24;;;;;;;8.33;4.33;;;;;;;;;;10419781;28;20836;-77
2024/03/29 18:20:26;;;;;;;8.03;4.10;;;;;;;;;;10424512;28;20999;-78
2024/03/29 18:25:30;;;;;;;8.80;4.32;;;;;;;;;;10430666;28;20986;-78
2024/03/29 18:30:34;;;;;;;12.33;4.10;;;;;;;;;;10437524;28;20517;-78
2024/03/29 18:35:37;;;;;;;7.40;4.03;;;;;;;;;;10441707;28;20486;-78
2024/03/29 18:40:41;;;;;;;7.43;3.80;;;;;;;;;;10437275;28;20509;-77
2024/03/29 18:45:43;;;;;;;8.37;3.83;;;;;;;;;;10434206;28;21001;-76
2024/03/29 18:50:53;;;;;;;9.57;4.20;;;;;;;;;;10439437;28;20406;-76
2024/03/29 18:56:00;;;;;;;9.32;4.78;;;;;;;;;;10437486;28;20416;-77
2024/03/29 19:01:02;;;;;;;7.27;4.20;;;;;;;;;;10436068;28;20419;-76
2024/03/29 19:06:05;;;;;;;8.40;3.40;;;;;;;;;;10437627;28;21110;-76
2024/03/29 19:11:09;;;;;;;7.18;3.80;;;;;;;;;;10440719;28;20493;-76
2024/03/29 19:16:11;;;;;;;7.78;3.90;;;;;;;;;;10436200;28;20461;-76
2024/03/29 19:21:13;;;;;;;6.73;3.63;;;;;;;;;;10437337;28;21660;-76
2024/03/29 19:26:17;;;;;;;10.30;3.72;;;;;;;;;;10435232;28;20414;-76
2024/03/29 19:31:19;;;;;;;10.50;3.95;;;;;;;;;;10438205;28;20452;-76
2024/03/29 19:36:22;;;;;;;10.93;4.57;;;;;;;;;;10436443;28;20979;-76
2024/03/29 19:41:26;;;;;;;9.48;4.97;;;;;;;;;;10432408;28;20893;-76
2024/03/29 19:46:29;;;;;;;8.60;4.50;;;;;;;;;;10436630;28;20556;-76
2024/03/29 19:51:31;;;;;;;8.45;4.47;;;;;;;;;;10435542;28;20897;-76
2024/03/29 19:56:35;;;;;;;9.83;4.60;;;;;;;;;;10439156;28;20983;-76
2024/03/29 20:01:37;;;;;;;13.48;5.20;;;;;;;;;;10434430;28;20416;-76
2024/03/29 20:06:40;;;;;;;8.67;4.90;;;;;;;;;;10423141;28;20507;-78
2024/03/29 20:11:44;;;;;;;11.37;4.70;;;;;;;;;;10414197;28;20511;-77
2024/03/29 20:16:46;;;;;;;11.45;5.38;;;;;;;;;;10410776;28;20519;-77
2024/03/29 20:21:49;;;;;;;11.30;4.95;;;;;;;;;;10412787;28;20445;-77
2024/03/29 20:26:53;;;;;;;11.43;5.50;;;;;;;;;;10408540;28;20512;-77
2024/03/29 20:31:59;;;;;;;13.05;5.43;;;;;;;;;;10413146;28;20456;-76
2024/03/29 20:37:02;;;;;;;13.43;5.55;;;;;;;;;;10403877;28;20479;-76
2024/03/29 20:42:06;;;;;;;14.23;5.30;;;;;;;;;;10408612;28;20476;-77
2024/03/29 20:47:09;;;;;;;12.75;5.72;;;;;;;;;;10407386;28;20461;-77
2024/03/29 20:52:17;;;;;;;15.52;5.70;;;;;;;;;;10422580;28;20403;-77
2024/03/29 20:57:21;;;;;;;13.87;5.40;;;;;;;;;;10430113;28;20449;-77
2024/03/29 21:07:44;;;;;;;17.08;6.50;;;;;;;;;;10420847;28;20493;-77
2024/03/29 21:12:49;;;;;;;16.83;5.10;;;;;;;;;;10421429;28;20848;-78
2024/03/29 21:17:52;;;;;;;17.93;5.57;;;;;;;;;;10424624;28;20497;-78
2024/03/29 21:22:57;;;;;;;18.08;5.25;;;;;;;;;;10418343;28;20519;-77
2024/03/29 21:28:03;;;;;;;19.02;6.20;;;;;;;;;;10426882;28;20926;-77
2024/03/29 21:33:05;;;;;;;19.27;5.32;;;;;;;;;;10423407;28;20913;-77
2024/03/29 21:38:13;;;;;;;14.32;4.35;;;;;;;;;;10413350;28;21042;-76
2024/03/29 21:43:17;;;;;;;20.13;4.63;;;;;;;;;;10421806;28;20501;-77
2024/03/29 21:48:20;;;;;;;11.73;3.28;;;;;;;;;;10405576;28;20471;-77
2024/03/29 21:53:22;;;;;;;18.67;4.30;;;;;;;;;;10405559;28;20457;-77
2024/03/29 21:58:26;;;;;;;12.70;3.97;;;;;;;;;;10419082;28;20510;-77
2024/03/29 22:03:28;;;;;;;19.53;5.23;;;;;;;;;;10489876;22;20511;-80
2024/03/29 22:08:31;;;;;;;15.00;4.05;;;;;;;;;;10485420;28;20520;-79
2024/03/29 22:13:34;;;;;;;16.67;3.47;;;;;;;;;;10487736;28;20446;-79
2024/03/29 22:18:37;;;;;;;17.73;3.90;;;;;;;;;;10482871;28;20449;-80
2024/03/29 22:23:39;;;;;;;14.07;3.97;;;;;;;;;;10488329;28;20520;-79
2024/03/29 22:28:43;;;;;;;21.27;3.60;;;;;;;;;;10482460;28;20547;-77
2024/03/29 22:33:47;;;;;;;16.60;3.80;;;;;;;;;;10485881;28;20446;-79
2024/03/29 22:38:49;;;;;;;15.17;3.63;;;;;;;;;;10487172;28;20437;-79
2024/03/29 22:43:53;;;;;;;14.23;2.97;;;;;;;;;;10484365;28;20548;-80
2024/03/29 22:48:56;;;;;;;12.25;3.78;;;;;;;;;;10480062;28;20503;-80
2024/03/29 22:53:58;;;;;;;21.02;3.55;;;;;;;;;;10482813;28;20979;-80
2024/03/29 22:59:04;;;;;;;12.73;3.40;;;;;;;;;;10486381;28;21054;-80
2024/03/29 23:04:06;;;;;;;13.40;3.85;;;;;;;;;;10494208;28;20772;-79
2024/03/29 23:09:08;;;;;;;15.13;2.93;;;;;;;;;;10495491;28;20436;-80
2024/03/29 23:14:12;;;;;;;15.93;3.80;;;;;;;;;;10492220;28;20453;-80
2024/03/29 23:19:15;;;;;;;19.73;3.40;;;;;;;;;;10495509;28;20396;-83
2024/03/29 23:24:17;;;;;;;16.80;3.03;;;;;;;;;;10492097;28;20414;-80
2024/03/29 23:29:21;;;;;;;15.03;3.33;;;;;;;;;;10492103;28;20418;-80
2024/03/29 23:34:24;;;;;;;17.73;3.47;;;;;;;;;;10491960;28;20457;-80
2024/03/29 23:39:28;;;;;;;11.73;2.70;;;;;;;;;;10497030;28;20464;-80
2024/03/29 23:44:32;;;;;;;13.18;3.05;;;;;;;;;;10490301;28;20443;-80
2024/03/29 23:49:35;;;;;;;14.80;3.33;;;;;;;;;;10489599;28;20402;-79
2024/03/29 23:54:37;;;;;;;10.60;2.63;;;;;;;;;;10488918;28;20968;-79
2024/03/29 23:59:41;;;;;;;22.55;3.70;;;;;;;;;;10491220;28;20915;-80
